createdAt,value
2023-04-06T03:59:03.560Z,35.47
2023-04-06T04:00:03.442Z,35.39
2023-04-06T04:01:03.433Z,35.08
2023-04-06T04:02:03.486Z,35.76
2023-04-06T04:03:03.523Z,35.95
2023-04-06T04:04:03.517Z,36.07
2023-04-06T04:05:03.414Z,35.76
2023-04-06T04:06:03.378Z,35.66
2023-04-06T04:07:03.363Z,35.97
2023-04-06T04:08:03.506Z,36.05
2023-04-06T04:09:03.394Z,36.16
2023-04-06T04:10:03.374Z,36.15
2023-04-06T04:11:03.374Z,35.87
2023-04-06T04:12:03.348Z,35.87
2023-04-06T04:13:03.341Z,35.97
2023-04-06T04:14:03.339Z,35.77
2023-04-06T04:15:03.357Z,35.87
2023-04-06T04:16:03.369Z,35.77
2023-04-06T04:17:03.322Z,35.87
2023-04-06T04:18:03.492Z,35.87
2023-04-06T04:19:03.317Z,36.16
2023-04-06T04:20:03.301Z,36.07
2023-04-06T04:21:03.311Z,36.25
2023-04-06T04:22:03.301Z,36.16
2023-04-06T04:23:03.294Z,36.16
2023-04-06T04:24:03.291Z,36.07
2023-04-06T04:25:03.275Z,36.25
2023-04-06T04:26:03.283Z,36.25
2023-04-06T04:27:03.309Z,36.25
2023-04-06T04:28:03.274Z,35.77
2023-04-06T04:29:03.269Z,36.45
2023-04-06T04:30:03.279Z,36.25
2023-04-06T04:31:03.279Z,36.07
2023-04-06T04:32:03.333Z,35.68
2023-04-06T04:33:03.354Z,36.25
2023-04-06T04:34:03.274Z,35.87
2023-04-06T04:35:03.244Z,36.07
2023-04-06T04:36:03.285Z,36.16
2023-04-06T04:37:03.258Z,35.87
2023-04-06T04:38:03.255Z,36.07
2023-04-06T04:39:03.235Z,35.87
2023-04-06T04:40:03.236Z,35.87
2023-04-06T04:41:03.232Z,36.07
2023-04-06T04:42:03.212Z,36.35
2023-04-06T04:43:03.221Z,36.16
2023-04-06T04:44:03.226Z,35.87
2023-04-06T04:45:03.218Z,35.77
2023-04-06T04:46:03.296Z,36.08
2023-04-06T04:47:03.230Z,36.08
2023-04-06T04:48:03.286Z,36.08
2023-04-06T04:49:03.186Z,36.27
2023-04-06T04:50:03.192Z,36.27
2023-04-06T04:51:03.186Z,35.89
2023-04-06T04:52:03.178Z,35.89
2023-04-06T04:53:03.188Z,35.89
2023-04-06T04:54:03.170Z,35.89
2023-04-06T04:55:03.164Z,35.89
2023-04-06T04:56:03.164Z,35.89
2023-04-06T04:57:03.185Z,35.99
2023-04-06T04:58:03.147Z,36.18
2023-04-06T04:59:03.211Z,35.99
2023-04-06T05:00:03.140Z,35.79
2023-04-06T05:01:03.185Z,35.99
2023-04-06T05:02:03.237Z,35.89
2023-04-06T05:03:03.223Z,35.79
2023-04-06T05:04:03.123Z,35.89
2023-04-06T05:05:03.153Z,35.89
2023-04-06T05:06:03.133Z,35.79
2023-04-06T05:07:03.115Z,35.79
2023-04-06T05:08:03.123Z,35.89
2023-04-06T05:09:03.114Z,35.99
2023-04-06T05:10:03.119Z,35.99
2023-04-06T05:11:03.122Z,35.99
2023-04-06T05:12:03.109Z,35.89
2023-04-06T05:13:03.093Z,35.89
2023-04-06T05:14:03.087Z,36.08
2023-04-06T05:15:03.094Z,36.08
2023-04-06T05:16:03.136Z,36.18
2023-04-06T05:17:03.070Z,36.08
2023-04-06T05:18:03.095Z,35.99
2023-04-06T05:19:03.075Z,36.18
2023-04-06T05:20:03.065Z,35.79
2023-04-06T05:21:03.070Z,35.99
2023-04-06T05:22:03.067Z,35.99
2023-04-06T05:23:03.070Z,36.18
2023-04-06T05:24:03.058Z,35.89
2023-04-06T05:25:03.061Z,36.08
2023-04-06T05:26:03.045Z,35.99
2023-04-06T05:27:03.027Z,36.08
2023-04-06T05:28:03.035Z,36.08
2023-04-06T05:29:03.021Z,36.08
2023-04-06T05:30:03.030Z,35.99
2023-04-06T05:31:03.023Z,35.99
2023-04-06T05:32:03.018Z,35.99
2023-04-06T05:33:03.036Z,35.99
2023-04-06T05:34:03.015Z,35.89
2023-04-06T05:35:03.045Z,35.99
2023-04-06T05:36:03.048Z,35.79
2023-04-06T05:37:02.992Z,35.89
2023-04-06T05:38:02.996Z,35.79
2023-04-06T05:39:02.984Z,35.99
2023-04-06T05:40:02.976Z,35.91
2023-04-06T05:41:02.976Z,35.81
2023-04-06T05:42:02.970Z,36.00
2023-04-06T05:43:02.958Z,35.71
2023-04-06T05:44:02.964Z,35.79
2023-04-06T05:45:02.977Z,36.00
2023-04-06T05:46:03.025Z,35.91
2023-04-06T05:47:02.978Z,36.00
2023-04-06T05:48:02.965Z,35.91
2023-04-06T05:49:04.204Z,35.71
2023-04-06T05:50:02.932Z,35.62
2023-04-06T05:51:02.945Z,35.91
2023-04-06T05:52:02.922Z,35.62
2023-04-06T05:53:02.938Z,35.33
2023-04-06T05:54:02.953Z,35.52
2023-04-06T05:55:02.958Z,35.33
2023-04-06T05:56:02.901Z,35.33
2023-04-06T05:57:02.899Z,35.33
2023-04-06T05:58:02.908Z,35.33
2023-04-06T05:59:02.903Z,35.52
2023-04-06T06:00:02.910Z,35.52
2023-04-06T06:01:02.917Z,35.52
2023-04-06T06:02:02.892Z,35.62
2023-04-06T06:03:02.907Z,35.52
2023-04-06T06:04:02.870Z,35.52
2023-04-06T06:05:02.909Z,35.52
2023-04-06T06:06:03.641Z,35.62
2023-04-06T06:07:02.877Z,35.62
2023-04-06T06:08:02.880Z,35.64
2023-04-06T06:09:02.873Z,35.64
2023-04-06T06:10:02.907Z,35.54
2023-04-06T06:11:02.841Z,35.64
2023-04-06T06:12:02.872Z,35.64
2023-04-06T06:13:02.844Z,35.54
2023-04-06T06:14:02.833Z,35.64
2023-04-06T06:15:02.842Z,35.64
2023-04-06T06:16:03.060Z,35.44
2023-04-06T06:17:02.827Z,35.64
2023-04-06T06:18:02.852Z,35.35
2023-04-06T06:19:02.807Z,35.44
2023-04-06T06:20:02.812Z,35.44
2023-04-06T06:21:02.816Z,35.35
2023-04-06T06:22:02.836Z,35.25
2023-04-06T06:23:02.827Z,35.16
2023-04-06T06:24:02.823Z,35.08
2023-04-06T06:25:02.791Z,35.36
2023-04-06T06:26:02.823Z,35.56
2023-04-06T06:27:02.824Z,35.56
2023-04-06T06:28:02.799Z,35.27
2023-04-06T06:29:02.800Z,35.27
2023-04-06T06:30:02.774Z,35.46
2023-04-06T06:31:02.821Z,35.17
2023-04-06T06:32:02.818Z,35.36
2023-04-06T06:33:02.837Z,35.27
2023-04-06T06:34:02.786Z,35.27
2023-04-06T06:35:02.761Z,35.17
2023-04-06T06:36:02.820Z,35.17
2023-04-06T06:37:02.769Z,35.08
2023-04-06T06:38:02.763Z,35.08
2023-04-06T06:39:02.767Z,35.27
2023-04-06T06:40:02.747Z,35.08
2023-04-06T06:41:02.763Z,35.28
2023-04-06T06:42:02.750Z,34.90
2023-04-06T06:43:02.773Z,35.00
2023-04-06T06:44:02.754Z,34.80
2023-04-06T06:45:02.756Z,34.80
2023-04-06T06:46:02.867Z,34.80
2023-04-06T06:47:02.738Z,34.80
2023-04-06T06:51:00.122Z,34.90
2023-04-06T06:52:00.151Z,34.90
2023-04-06T06:53:00.160Z,35.00
2023-04-06T06:54:00.114Z,35.10
2023-04-06T06:55:00.145Z,35.10
2023-04-06T06:56:00.141Z,35.00
2023-04-06T06:57:00.120Z,34.92
2023-04-06T06:58:00.102Z,35.11
2023-04-06T06:59:00.122Z,34.53
2023-04-06T07:00:00.104Z,35.02
2023-04-06T07:01:00.203Z,34.92
2023-04-06T07:02:00.087Z,34.53
2023-04-06T07:03:00.157Z,34.53
2023-04-06T07:04:00.123Z,34.53
2023-04-06T07:05:00.117Z,34.82
2023-04-06T07:06:00.093Z,34.63
2023-04-06T07:07:00.104Z,34.72
2023-04-06T07:08:00.092Z,34.63
2023-04-06T07:09:00.076Z,34.72
2023-04-06T07:10:00.129Z,34.53
2023-04-06T07:11:00.125Z,34.53
2023-04-06T07:12:00.082Z,34.63
2023-04-06T07:13:00.087Z,34.74
2023-04-06T07:14:00.057Z,34.64
2023-04-06T07:15:00.050Z,34.55
2023-04-06T07:16:00.048Z,34.55
2023-04-06T07:17:00.073Z,34.64
2023-04-06T07:18:00.155Z,34.55
2023-04-06T07:19:00.029Z,34.64
2023-04-06T07:20:00.076Z,34.74
2023-04-06T07:21:00.048Z,34.84
2023-04-06T07:22:00.160Z,34.74
2023-04-06T07:23:00.024Z,34.64
2023-04-06T07:24:00.043Z,34.64
2023-04-06T07:25:00.328Z,34.64
2023-04-06T07:26:00.029Z,34.74
2023-04-06T07:27:00.083Z,34.76
2023-04-06T07:28:00.038Z,34.26
2023-04-06T07:29:00.046Z,34.55
2023-04-06T07:30:00.009Z,34.55
2023-04-06T07:31:00.004Z,34.38
2023-04-06T07:32:00.075Z,34.47
2023-04-06T07:33:00.081Z,34.38
2023-04-06T07:34:00.005Z,34.38
2023-04-06T07:35:00.001Z,34.56
2023-04-06T07:36:00.133Z,34.47
2023-04-06T07:37:01.154Z,34.38
2023-04-06T07:37:59.995Z,34.66
2023-04-06T07:38:59.993Z,34.66
2023-04-06T07:39:59.991Z,34.66
2023-04-06T07:41:00.000Z,34.47
2023-04-06T07:41:59.992Z,34.56
2023-04-06T07:43:00.020Z,34.56
2023-04-06T07:43:59.977Z,34.47
2023-04-06T07:45:00.005Z,34.56
2023-04-06T07:45:59.990Z,34.38
2023-04-06T07:46:59.997Z,34.56
2023-04-06T07:47:59.996Z,34.58
2023-04-06T07:48:59.997Z,34.58
2023-04-06T07:50:00.007Z,34.39
2023-04-06T07:50:59.966Z,34.29
2023-04-06T07:51:59.975Z,34.39
2023-04-06T07:52:59.969Z,34.29
2023-04-06T07:53:59.968Z,34.29
2023-04-06T07:54:59.966Z,34.39
2023-04-06T07:55:59.965Z,34.39
2023-04-06T07:56:59.981Z,34.29
2023-04-06T07:57:59.964Z,34.20
2023-04-06T07:58:59.993Z,34.39
2023-04-06T07:59:59.979Z,34.29
2023-04-06T08:00:59.981Z,34.29
2023-04-06T08:02:00.054Z,34.48
2023-04-06T08:03:00.082Z,34.68
2023-04-06T08:04:00.011Z,34.39
2023-04-06T08:05:00.062Z,34.31
2023-04-06T08:05:59.954Z,34.60
2023-04-06T08:06:59.960Z,34.31
2023-04-06T08:07:59.957Z,34.60
2023-04-06T08:08:59.942Z,34.31
2023-04-06T08:09:59.946Z,34.60
2023-04-06T08:11:02.024Z,34.31
2023-04-06T08:11:59.962Z,34.41
2023-04-06T08:12:59.941Z,34.50
2023-04-06T08:13:59.940Z,34.50
2023-04-06T08:14:59.960Z,34.31
2023-04-06T08:15:59.965Z,34.50
2023-04-06T08:16:59.950Z,34.50
2023-04-06T08:17:59.996Z,34.50
2023-04-06T08:18:59.935Z,34.50
2023-04-06T08:19:59.927Z,34.41
2023-04-06T08:20:59.929Z,34.31
2023-04-06T08:21:59.951Z,34.31
2023-04-06T08:22:59.948Z,34.21
2023-04-06T08:23:59.925Z,34.23
2023-04-06T08:24:59.922Z,34.21
2023-04-06T08:25:59.931Z,34.21
2023-04-06T08:26:59.941Z,34.23
2023-04-06T08:27:59.942Z,34.13
2023-04-06T08:28:59.924Z,34.13
2023-04-06T08:29:59.918Z,34.21
2023-04-06T08:30:59.988Z,33.94
2023-04-06T08:31:59.924Z,34.23
2023-04-06T08:32:59.969Z,34.23
2023-04-06T08:33:59.912Z,34.23
2023-04-06T08:34:59.913Z,34.13
2023-04-06T08:35:59.949Z,34.23
2023-04-06T08:36:59.925Z,34.23
2023-04-06T08:37:59.913Z,34.13
2023-04-06T08:38:59.908Z,33.94
2023-04-06T08:39:59.916Z,34.23
2023-04-06T08:40:59.924Z,34.23
2023-04-06T08:41:59.925Z,34.33
2023-04-06T08:42:59.935Z,34.13
2023-04-06T08:43:59.898Z,34.15
2023-04-06T08:44:59.901Z,34.23
2023-04-06T08:45:59.923Z,34.04
2023-04-06T08:46:59.933Z,34.23
2023-04-06T08:47:59.967Z,34.04
2023-04-06T08:48:59.915Z,34.33
2023-04-06T08:49:59.899Z,34.23
2023-04-06T08:50:59.963Z,34.25
2023-04-06T08:51:59.919Z,34.25
2023-04-06T08:52:59.891Z,34.25
2023-04-06T08:53:59.916Z,34.15
2023-04-06T08:54:59.892Z,34.25
2023-04-06T08:55:59.917Z,34.25
2023-04-06T08:56:59.910Z,34.25
2023-04-06T08:57:59.883Z,34.34
2023-04-06T08:58:59.943Z,34.15
2023-04-06T08:59:59.893Z,34.34
2023-04-06T09:00:59.899Z,34.34
2023-04-06T09:01:59.958Z,34.25
2023-04-06T09:03:00.145Z,34.15
2023-04-06T09:04:00.071Z,34.25
2023-04-06T09:04:59.940Z,34.25
2023-04-06T09:05:59.883Z,34.15
2023-04-06T09:06:59.899Z,34.25
2023-04-06T09:07:59.897Z,34.15
2023-04-06T09:08:59.909Z,34.15
2023-04-06T09:09:59.880Z,34.34
2023-04-06T09:10:59.880Z,34.25
2023-04-06T09:11:59.884Z,34.15
2023-04-06T09:12:59.879Z,34.25
2023-04-06T09:13:59.896Z,33.97
2023-04-06T09:14:59.889Z,34.17
2023-04-06T09:15:59.915Z,34.17
2023-04-06T09:16:59.886Z,34.17
2023-04-06T09:17:59.949Z,34.15
2023-04-06T09:18:59.893Z,34.27
2023-04-06T09:19:59.906Z,34.27
2023-04-06T09:20:59.875Z,34.17
2023-04-06T09:21:59.881Z,34.07
2023-04-06T09:22:59.881Z,34.27
2023-04-06T09:23:59.927Z,34.27
2023-04-06T09:24:59.881Z,34.07
2023-04-06T09:25:59.891Z,34.27
2023-04-06T09:26:59.872Z,34.07
2023-04-06T09:27:59.881Z,34.17
2023-04-06T09:28:59.878Z,34.17
2023-04-06T09:29:59.890Z,34.27
2023-04-06T09:30:59.887Z,34.27
2023-04-06T09:31:59.917Z,34.07
2023-04-06T09:32:59.980Z,34.27
2023-04-06T09:33:59.877Z,34.27
2023-04-06T09:34:59.897Z,34.36
2023-04-06T09:35:59.931Z,34.17
2023-04-06T09:36:59.893Z,34.36
2023-04-06T09:37:59.888Z,34.36
2023-04-06T09:38:59.878Z,34.28
2023-04-06T09:39:59.879Z,34.17
2023-04-06T09:41:01.622Z,34.27
2023-04-06T09:41:59.937Z,34.28
2023-04-06T09:42:59.875Z,34.28
2023-04-06T09:43:59.882Z,34.28
2023-04-06T09:44:59.899Z,34.19
2023-04-06T09:45:59.893Z,34.38
2023-04-06T09:47:01.193Z,34.38
2023-04-06T09:48:00.133Z,34.28
2023-04-06T09:48:59.880Z,34.28
2023-04-06T09:49:59.919Z,34.38
2023-04-06T09:50:59.894Z,34.38
2023-04-06T09:51:59.896Z,34.09
2023-04-06T09:52:59.898Z,34.28
2023-04-06T09:53:59.905Z,34.19
2023-04-06T09:54:59.881Z,34.28
2023-04-06T09:55:59.889Z,34.28
2023-04-06T09:56:59.955Z,34.28
2023-04-06T09:57:59.894Z,34.19
2023-04-06T09:58:59.980Z,34.30
2023-04-06T09:59:59.880Z,34.28
2023-04-06T10:00:59.950Z,34.20
2023-04-06T10:01:59.868Z,34.20
2023-04-06T10:13:23.056Z,33.91
2023-04-06T10:14:23.005Z,33.91
2023-04-06T10:15:23.248Z,34.11
2023-04-06T10:16:23.083Z,33.81
2023-04-06T10:17:23.057Z,33.72
2023-04-06T10:18:23.012Z,33.81
2023-04-06T10:19:23.008Z,33.83
2023-04-06T10:20:23.006Z,33.73
2023-04-06T10:21:23.006Z,33.92
2023-04-06T10:22:23.010Z,34.31
2023-04-06T10:23:23.033Z,34.31
2023-04-06T10:24:23.022Z,34.31
2023-04-06T10:25:23.020Z,34.12
2023-04-06T10:26:22.993Z,34.12
2023-04-06T10:27:23.943Z,34.31
2023-04-06T10:28:23.026Z,34.12
2023-04-06T10:29:23.028Z,34.31
2023-04-06T10:30:23.006Z,34.31
2023-04-06T10:31:23.041Z,34.12
2023-04-06T10:32:23.078Z,34.22
2023-04-06T10:33:23.017Z,34.33
2023-04-06T10:34:23.005Z,34.31
2023-04-06T10:35:23.019Z,34.23
2023-04-06T10:36:23.081Z,34.23
2023-04-06T10:37:23.015Z,34.33
2023-04-06T10:38:23.102Z,33.94
2023-04-06T10:39:23.018Z,34.14
2023-04-06T10:40:23.046Z,34.14
2023-04-06T10:41:23.042Z,34.33
2023-04-06T10:42:23.041Z,34.23
2023-04-06T10:43:23.126Z,34.44
2023-04-06T10:44:23.041Z,34.35
2023-04-06T10:45:23.054Z,34.06
2023-04-06T10:46:23.126Z,33.86
2023-04-06T10:47:23.064Z,33.76
2023-04-06T10:48:23.126Z,33.76
2023-04-06T10:49:25.228Z,33.96
2023-04-06T10:50:23.055Z,34.16
2023-04-06T10:51:23.040Z,34.17
2023-04-06T10:52:23.038Z,33.98
2023-04-06T10:53:23.107Z,33.98
2023-04-06T10:54:23.039Z,33.98
2023-04-06T10:55:23.047Z,33.88
2023-04-06T10:56:23.051Z,33.98
2023-04-06T10:57:23.057Z,34.08
2023-04-06T10:58:23.061Z,33.88
2023-04-06T10:59:23.336Z,34.09
2023-04-06T11:00:23.058Z,34.19
2023-04-06T11:01:23.155Z,34.19
2023-04-06T11:02:23.071Z,33.61
2023-04-06T11:04:23.140Z,33.70
2023-04-06T11:05:23.063Z,33.70
2023-04-06T11:06:23.054Z,33.70
2023-04-06T11:07:23.059Z,33.61
2023-04-06T11:08:23.068Z,33.72
2023-04-06T11:09:23.065Z,33.81
2023-04-06T11:10:23.065Z,33.72
2023-04-06T11:11:23.084Z,33.91
2023-04-06T11:12:23.080Z,34.01
2023-04-06T11:13:23.089Z,33.91
2023-04-06T11:14:23.076Z,33.81
2023-04-06T11:15:23.077Z,33.81
2023-04-06T11:16:23.117Z,33.73
2023-04-06T11:17:23.112Z,33.64
2023-04-06T11:18:23.095Z,33.64
2023-04-06T11:19:23.103Z,33.54
2023-04-06T11:20:23.167Z,33.73
2023-04-06T11:21:23.118Z,33.64
2023-04-06T11:22:23.094Z,33.73
2023-04-06T11:23:23.111Z,33.85
2023-04-06T11:24:23.108Z,33.44
2023-04-06T11:25:23.143Z,33.46
2023-04-06T11:26:23.109Z,33.26
2023-04-06T11:27:23.116Z,33.46
2023-04-06T11:28:23.117Z,33.07
2023-04-06T11:29:23.115Z,33.58
2023-04-06T11:30:23.119Z,33.75
2023-04-06T11:31:23.175Z,33.67
2023-04-06T11:32:23.155Z,33.38
2023-04-06T11:33:23.156Z,33.48
2023-04-06T11:34:23.126Z,33.38
2023-04-06T11:35:23.162Z,33.38
2023-04-06T11:36:23.156Z,33.38
2023-04-06T11:37:23.152Z,33.49
2023-04-06T11:38:23.146Z,33.67
2023-04-06T11:39:23.156Z,33.49
2023-04-06T11:40:23.166Z,33.39
2023-04-06T11:41:23.161Z,33.39
2023-04-06T11:42:23.166Z,33.29
2023-04-06T11:43:23.218Z,33.12
2023-04-06T11:44:23.159Z,33.31
2023-04-06T11:45:23.174Z,33.41
2023-04-06T11:46:23.219Z,33.22
2023-04-06T11:47:23.206Z,33.12
2023-04-06T11:48:23.808Z,33.22
2023-04-06T11:49:23.265Z,33.14
2023-04-06T11:50:23.193Z,33.33
2023-04-06T11:51:23.190Z,32.94
2023-04-06T11:52:23.238Z,32.45
2023-04-06T11:53:23.232Z,32.84
2023-04-06T11:54:23.203Z,32.94
2023-04-06T11:55:23.218Z,33.06
2023-04-06T11:56:23.216Z,32.57
2023-04-06T11:57:23.227Z,32.67
2023-04-06T11:58:23.291Z,32.58
2023-04-06T11:59:23.286Z,32.48
2023-04-06T12:00:23.236Z,32.58
2023-04-06T12:01:23.239Z,32.48
2023-04-06T12:02:23.415Z,32.48
2023-04-06T12:03:23.447Z,32.19
2023-04-06T12:04:23.318Z,32.50
2023-04-06T12:05:23.296Z,32.50
2023-04-06T12:06:23.268Z,32.70
2023-04-06T12:07:23.259Z,32.40
2023-04-06T12:08:23.264Z,32.03
2023-04-06T12:09:23.268Z,32.42
2023-04-06T12:10:23.329Z,32.32
2023-04-06T12:11:23.290Z,32.32
2023-04-06T12:12:23.271Z,32.13
2023-04-06T12:13:23.285Z,32.24
2023-04-06T12:14:23.289Z,32.04
2023-04-06T12:15:23.312Z,31.75
2023-04-06T12:16:23.380Z,31.75
2023-04-06T12:17:23.320Z,31.28
2023-04-06T12:18:23.307Z,31.77
2023-04-06T12:19:23.317Z,31.48
2023-04-06T12:20:27.076Z,31.38
2023-04-06T12:21:23.359Z,31.49
2023-04-06T12:22:23.328Z,31.29
2023-04-06T12:23:23.338Z,31.29
2023-04-06T12:24:23.340Z,31.49
2023-04-06T12:25:23.367Z,31.39
2023-04-06T12:26:23.355Z,31.11
2023-04-06T12:27:23.366Z,31.51
2023-04-06T12:28:23.365Z,30.83
2023-04-06T12:29:23.366Z,31.01
2023-04-06T12:30:23.384Z,31.13
2023-04-06T12:31:23.424Z,31.13
2023-04-06T12:32:23.447Z,30.83
2023-04-06T12:33:23.425Z,30.65
2023-04-06T12:34:23.413Z,30.85
2023-04-06T12:35:23.397Z,30.85
2023-04-06T12:36:23.430Z,30.67
2023-04-06T12:37:23.416Z,30.77
2023-04-06T12:38:23.410Z,30.77
2023-04-06T12:39:23.441Z,30.57
2023-04-06T12:40:23.426Z,30.27
2023-04-06T12:41:23.438Z,30.37
2023-04-06T12:42:23.435Z,30.58
2023-04-06T12:43:23.431Z,30.49
2023-04-06T12:44:25.420Z,30.00
2023-04-06T12:45:23.450Z,30.11
2023-04-06T12:46:23.489Z,30.11
2023-04-06T12:47:23.468Z,30.01
2023-04-06T12:48:23.588Z,29.72
2023-04-06T12:49:23.575Z,29.73
2023-04-06T12:50:23.521Z,29.93
2023-04-06T12:51:23.481Z,29.83
2023-04-06T12:52:23.510Z,29.63
2023-04-06T12:53:23.516Z,29.53
2023-04-06T12:54:23.514Z,29.64
2023-04-06T12:55:23.523Z,29.85
2023-04-06T12:56:23.530Z,29.55
2023-04-06T12:57:23.528Z,29.55
2023-04-06T12:58:23.541Z,29.76
2023-04-06T12:59:23.622Z,29.66
2023-04-06T13:00:23.726Z,29.47
2023-04-06T13:01:23.734Z,29.55
2023-04-06T13:02:23.602Z,29.64
2023-04-06T13:03:23.603Z,29.94
2023-04-06T13:04:23.569Z,29.85
2023-04-06T13:05:23.580Z,29.73
2023-04-06T13:06:23.600Z,29.83
2023-04-06T13:07:23.625Z,29.73
2023-04-06T13:08:23.633Z,29.72
2023-04-06T13:09:23.627Z,29.91
2023-04-06T13:10:23.616Z,29.91
2023-04-06T13:11:23.838Z,29.91
2023-04-06T13:12:23.652Z,29.90
2023-04-06T13:13:23.640Z,30.00
2023-04-06T13:14:23.641Z,29.80
2023-04-06T13:15:23.707Z,29.90
2023-04-06T13:16:23.723Z,29.90
2023-04-06T13:17:23.794Z,29.60
2023-04-06T13:18:23.648Z,29.70
2023-04-06T13:19:23.679Z,29.70
2023-04-06T13:20:23.660Z,29.70
2023-04-06T13:21:23.693Z,29.50
2023-04-06T13:22:23.686Z,29.72
2023-04-06T13:23:23.677Z,29.50
2023-04-06T13:24:23.685Z,29.50
2023-04-06T13:25:23.702Z,29.60
2023-04-06T13:26:23.701Z,29.52
2023-04-06T13:27:23.736Z,29.52
2023-04-06T13:28:23.706Z,29.43
2023-04-06T13:29:23.737Z,29.33
2023-04-06T13:30:23.748Z,29.62
2023-04-06T13:31:23.735Z,29.72
2023-04-06T13:32:23.817Z,29.70
2023-04-06T13:33:23.764Z,29.50
2023-04-06T13:34:23.778Z,29.50
2023-04-06T13:35:23.764Z,29.50
2023-04-06T13:36:23.820Z,29.60
2023-04-06T13:37:23.770Z,29.50
2023-04-06T13:38:23.776Z,29.50
2023-04-06T13:39:23.801Z,29.60
2023-04-06T13:40:23.793Z,29.49
2023-04-06T13:41:23.820Z,29.50
2023-04-06T13:42:23.802Z,29.49
2023-04-06T13:43:23.817Z,29.49
2023-04-06T13:44:23.795Z,29.49
2023-04-06T13:45:23.797Z,29.49
2023-04-06T13:46:23.862Z,29.49
2023-04-06T13:47:23.812Z,29.59
2023-04-06T13:48:23.844Z,29.59
2023-04-06T13:49:23.836Z,29.39
2023-04-06T13:50:23.829Z,29.49
2023-04-06T13:51:23.850Z,29.79
2023-04-06T13:52:23.884Z,29.77
2023-04-06T13:53:23.847Z,29.68
2023-04-06T13:54:23.899Z,29.87
2023-04-06T13:55:23.847Z,29.87
2023-04-06T13:56:23.863Z,29.87
2023-04-06T13:57:23.903Z,29.77
2023-04-06T13:58:23.864Z,29.87
2023-04-06T13:59:24.034Z,29.77
2023-04-06T14:00:23.892Z,29.85
2023-04-06T14:01:23.899Z,29.87
2023-04-06T14:02:24.302Z,29.66
2023-04-06T14:03:24.039Z,29.66
2023-04-06T14:04:23.905Z,29.66
2023-04-06T14:05:23.904Z,29.74
2023-04-06T14:06:30.991Z,29.55
2023-04-06T14:07:24.767Z,29.63
2023-04-06T14:08:23.919Z,29.83
2023-04-06T14:09:23.919Z,29.34
2023-04-06T14:10:23.923Z,29.53
2023-04-06T14:11:23.950Z,29.63
2023-04-06T14:12:23.924Z,29.73
2023-04-06T14:13:24.058Z,29.73
2023-04-06T14:14:23.934Z,29.53
2023-04-06T14:15:23.942Z,29.61
2023-04-06T14:16:24.005Z,29.32
2023-04-06T14:17:23.989Z,29.71
2023-04-06T14:18:23.946Z,29.81
2023-04-06T14:19:23.983Z,30.09
2023-04-06T14:20:23.967Z,29.99
2023-04-06T14:21:23.962Z,29.98
2023-04-06T14:22:23.963Z,29.98
2023-04-06T14:23:23.970Z,29.98
2023-04-06T14:24:23.997Z,29.96
2023-04-06T14:25:23.974Z,30.16
2023-04-06T14:26:23.975Z,30.35
2023-04-06T14:27:24.008Z,30.24
2023-04-06T14:28:23.988Z,30.24
2023-04-06T14:29:24.042Z,30.63
2023-04-06T14:30:24.063Z,30.44
2023-04-06T14:31:24.048Z,30.52
2023-04-06T14:32:24.043Z,30.52
2023-04-06T14:33:24.008Z,30.42
2023-04-06T14:34:24.020Z,30.51
2023-04-06T14:35:24.022Z,30.51
2023-04-06T14:36:24.047Z,30.51
2023-04-06T14:37:24.033Z,30.39
2023-04-06T14:38:24.026Z,30.58
2023-04-06T14:39:24.021Z,30.68
2023-04-06T14:40:24.040Z,30.68
2023-04-06T14:41:24.024Z,30.77
2023-04-06T14:42:24.026Z,30.77
2023-04-06T14:43:24.036Z,30.57
2023-04-06T14:44:24.158Z,30.67
2023-04-06T14:45:24.046Z,30.67
2023-04-06T14:46:24.106Z,30.67
2023-04-06T14:47:24.065Z,30.87
2023-04-06T14:48:24.055Z,30.67
2023-04-06T14:49:24.058Z,30.67
2023-04-06T14:50:24.052Z,30.87
2023-04-06T14:51:24.057Z,30.77
2023-04-06T14:52:24.042Z,30.47
2023-04-06T14:53:24.049Z,30.55
2023-04-06T14:54:24.084Z,30.75
2023-04-06T14:55:24.063Z,30.65
2023-04-06T14:56:24.071Z,30.65
2023-04-06T14:57:24.055Z,30.83
2023-04-06T14:58:24.113Z,30.74
2023-04-06T14:59:24.085Z,31.03
2023-04-06T15:00:24.073Z,30.91
2023-04-06T15:01:24.148Z,31.30
2023-04-06T15:02:24.276Z,31.11
2023-04-06T15:03:24.242Z,31.21
2023-04-06T15:04:24.191Z,31.10
2023-04-06T15:05:24.069Z,31.29
2023-04-06T15:06:24.084Z,31.00
2023-04-06T15:07:24.082Z,31.08
2023-04-06T15:08:24.077Z,31.27
2023-04-06T15:09:24.084Z,31.08
2023-04-06T15:10:24.074Z,31.37
2023-04-06T15:11:24.095Z,31.57
2023-04-06T15:12:24.072Z,31.26
2023-04-06T15:13:24.075Z,31.45
2023-04-06T15:14:24.177Z,31.16
2023-04-06T15:15:24.080Z,31.26
2023-04-06T15:16:24.178Z,31.34
2023-04-06T15:17:24.204Z,31.73
2023-04-06T15:18:24.093Z,31.53
2023-04-06T15:19:24.094Z,31.63
2023-04-06T15:20:24.090Z,31.52
2023-04-06T15:21:24.591Z,31.52
2023-04-06T15:22:24.127Z,31.42
2023-04-06T15:23:24.107Z,32.00
2023-04-06T15:24:24.084Z,32.00
2023-04-06T15:25:24.083Z,31.81
2023-04-06T15:26:24.082Z,31.99
2023-04-06T15:27:24.077Z,31.70
2023-04-06T15:28:24.082Z,31.79
2023-04-06T15:29:24.082Z,32.09
2023-04-06T15:30:24.090Z,31.87
2023-04-06T15:31:36.095Z,32.07
2023-04-06T15:32:24.185Z,32.17
2023-04-06T15:33:24.141Z,32.17
2023-04-06T15:34:24.102Z,32.07
2023-04-06T15:35:24.077Z,32.06
2023-04-06T15:36:24.093Z,32.44
2023-04-06T15:37:24.137Z,31.96
2023-04-06T15:38:24.102Z,32.24
2023-04-06T15:39:24.105Z,32.15
2023-04-06T15:40:24.078Z,32.24
2023-04-06T15:41:24.093Z,31.96
2023-04-06T15:42:24.079Z,32.06
2023-04-06T15:43:24.088Z,32.33
2023-04-06T15:44:24.091Z,32.14
2023-04-06T15:45:24.085Z,32.23
2023-04-06T15:46:24.096Z,32.23
2023-04-06T15:47:24.146Z,32.33
2023-04-06T15:48:24.084Z,32.33
2023-04-06T15:49:24.147Z,32.33
2023-04-06T15:50:24.071Z,32.33
2023-04-06T15:51:24.100Z,32.33
2023-04-06T15:52:24.097Z,32.33
2023-04-06T15:53:24.084Z,32.51
2023-04-06T15:54:24.064Z,32.21
2023-04-06T15:55:24.083Z,32.41
2023-04-06T15:56:24.073Z,32.12
2023-04-06T15:57:24.063Z,32.79
2023-04-06T15:58:24.085Z,32.79
2023-04-06T15:59:24.079Z,32.79
2023-04-06T16:00:24.061Z,32.89
2023-04-06T16:12:30.915Z,32.67
2023-04-06T16:13:30.893Z,32.86
2023-04-06T16:14:30.867Z,32.76
2023-04-06T16:15:30.873Z,32.76
2023-04-06T16:16:30.924Z,32.96
2023-04-06T16:17:30.875Z,32.96
2023-04-06T16:18:30.854Z,32.86
2023-04-06T16:19:30.852Z,32.76
2023-04-06T16:20:30.825Z,32.96
2023-04-06T16:21:30.868Z,33.15
2023-04-06T16:22:30.818Z,33.04
2023-04-06T16:23:30.856Z,32.96
2023-04-06T16:24:30.825Z,33.04
2023-04-06T16:25:30.816Z,32.94
2023-04-06T16:26:30.828Z,32.84
2023-04-06T16:27:30.818Z,33.04
2023-04-06T16:28:30.835Z,33.23
2023-04-06T16:29:30.859Z,33.23
2023-04-06T16:30:30.823Z,33.23
2023-04-06T16:31:30.895Z,33.33
2023-04-06T16:32:30.799Z,33.33
2023-04-06T16:33:30.804Z,33.04
2023-04-06T16:34:30.826Z,33.14
2023-04-06T16:35:30.817Z,33.14
2023-04-06T16:36:30.814Z,33.23
2023-04-06T16:37:30.800Z,33.42
2023-04-06T16:38:30.789Z,33.12
2023-04-06T16:39:30.823Z,33.22
2023-04-06T16:40:30.807Z,33.22
2023-04-06T16:41:30.794Z,33.40
2023-04-06T16:42:30.785Z,33.22
2023-04-06T16:43:30.769Z,33.31
2023-04-06T16:44:30.840Z,33.02
2023-04-06T16:45:30.808Z,33.22
2023-04-06T16:46:30.801Z,33.22
2023-04-06T16:47:30.815Z,33.31
2023-04-06T16:48:30.772Z,33.31
2023-04-06T16:49:30.764Z,33.50
2023-04-06T16:50:30.783Z,33.31
2023-04-06T16:51:30.782Z,33.50
2023-04-06T16:52:30.764Z,33.39
2023-04-06T16:53:30.756Z,33.50
2023-04-06T16:54:30.798Z,33.29
2023-04-06T16:55:30.746Z,33.29
2023-04-06T16:56:30.812Z,33.39
2023-04-06T16:57:30.773Z,33.29
2023-04-06T16:58:30.745Z,33.58
2023-04-06T16:59:30.748Z,33.58
2023-04-06T17:00:30.772Z,33.58
2023-04-06T17:01:30.902Z,33.68
2023-04-06T17:02:30.878Z,33.58
2023-04-06T17:03:31.093Z,33.78
2023-04-06T17:04:30.731Z,33.78
2023-04-06T17:05:30.723Z,33.78
2023-04-06T17:06:30.721Z,33.58
2023-04-06T17:07:30.717Z,33.48
2023-04-06T17:08:30.723Z,33.39
2023-04-06T17:09:30.767Z,33.58
2023-04-06T17:10:33.863Z,33.39
2023-04-06T17:11:45.631Z,33.39
2023-04-06T17:12:30.724Z,33.57
2023-04-06T17:13:30.706Z,33.39
2023-04-06T17:14:30.704Z,33.47
2023-04-06T17:15:30.695Z,33.37
2023-04-06T17:16:30.728Z,33.37